createdAt,value
2018-09-15T00:00:49.479Z,14.75
2018-09-15T00:01:49.437Z,14.78
2018-09-15T00:02:49.425Z,14.74
2018-09-15T00:03:49.413Z,14.75
2018-09-15T00:04:49.404Z,14.72
2018-09-15T00:05:49.393Z,14.75
2018-09-15T00:06:49.410Z,14.66
2018-09-15T00:07:49.379Z,14.71
2018-09-15T00:08:49.360Z,14.71
2018-09-15T00:09:49.354Z,14.61
2018-09-15T00:10:49.339Z,14.66
2018-09-15T00:11:49.333Z,14.74
2018-09-15T00:12:49.343Z,14.72
2018-09-15T00:13:49.308Z,14.74
2018-09-15T00:14:49.296Z,14.69
2018-09-15T00:15:49.285Z,14.63
2018-09-15T00:16:49.275Z,14.66
2018-09-15T00:17:49.339Z,14.66
2018-09-15T00:18:49.254Z,14.60
2018-09-15T00:19:49.247Z,14.64
2018-09-15T00:20:49.232Z,14.67
2018-09-15T00:21:49.227Z,14.66
2018-09-15T00:22:49.238Z,14.66
2018-09-15T00:23:49.201Z,14.71
2018-09-15T00:24:49.188Z,14.63
2018-09-15T00:25:49.181Z,14.75
2018-09-15T00:26:49.167Z,14.66
2018-09-15T00:27:49.179Z,14.69
2018-09-15T00:28:49.181Z,14.60
2018-09-15T00:29:49.136Z,14.78
2018-09-15T00:30:49.129Z,14.72
2018-09-15T00:31:49.115Z,14.64
2018-09-15T00:32:49.103Z,14.74
2018-09-15T00:33:49.093Z,14.64
2018-09-15T00:34:49.106Z,14.71
2018-09-15T00:35:49.071Z,14.74
2018-09-15T00:36:49.061Z,14.72
2018-09-15T00:37:49.076Z,14.74
2018-09-15T00:38:49.076Z,14.74
2018-09-15T00:39:49.052Z,14.75
2018-09-15T00:40:49.020Z,14.78
2018-09-15T00:41:49.063Z,14.74
2018-09-15T00:42:48.996Z,14.74
2018-09-15T00:43:48.986Z,14.71
2018-09-15T00:44:48.997Z,14.71
2018-09-15T00:45:48.963Z,14.72
2018-09-15T00:46:48.952Z,14.72
2018-09-15T00:47:48.943Z,14.82
2018-09-15T00:48:48.932Z,14.72
2018-09-15T00:49:48.944Z,14.78
2018-09-15T00:50:48.913Z,14.79
2018-09-15T00:51:48.904Z,14.80
2018-09-15T00:52:48.889Z,14.71
2018-09-15T00:53:48.877Z,14.74
2018-09-15T00:54:48.890Z,14.79
2018-09-15T00:55:48.856Z,14.79
2018-09-15T00:56:48.844Z,14.78
2018-09-15T00:57:48.834Z,14.75
2018-09-15T00:58:48.824Z,14.74
2018-09-15T00:59:48.841Z,14.75
2018-09-15T01:00:48.802Z,14.72
2018-09-15T01:01:48.794Z,14.66
2018-09-15T01:02:48.795Z,14.69
2018-09-15T01:03:48.773Z,14.78
2018-09-15T01:04:48.759Z,14.69
2018-09-15T01:05:48.787Z,14.71
2018-09-15T01:06:48.738Z,14.67
2018-09-15T01:07:48.727Z,14.79
2018-09-15T01:08:48.721Z,14.71
2018-09-15T01:09:48.706Z,14.66
2018-09-15T01:10:48.695Z,14.69
2018-09-15T01:11:48.708Z,14.71
2018-09-15T01:12:48.674Z,14.67
2018-09-15T01:13:48.721Z,14.63
2018-09-15T01:14:48.656Z,14.63
2018-09-15T01:15:48.642Z,14.67
2018-09-15T01:16:48.657Z,14.67
2018-09-15T01:17:48.620Z,14.61
2018-09-15T01:18:48.610Z,14.66
2018-09-15T01:19:48.600Z,14.69
2018-09-15T01:20:48.589Z,14.57
2018-09-15T01:21:48.603Z,14.67
2018-09-15T01:22:48.566Z,14.56
2018-09-15T01:23:48.557Z,14.59
2018-09-15T01:24:48.549Z,14.61
2018-09-15T01:25:48.534Z,14.69
2018-09-15T01:26:48.549Z,14.67
2018-09-15T01:27:48.513Z,14.69
2018-09-15T01:28:48.503Z,14.67
2018-09-15T01:29:48.492Z,14.67
2018-09-15T01:30:48.480Z,14.69
2018-09-15T01:31:48.494Z,14.67
2018-09-15T01:32:48.460Z,14.71
2018-09-15T01:33:48.448Z,14.67
2018-09-15T01:34:48.458Z,14.71
2018-09-15T01:35:48.426Z,14.74
2018-09-15T01:36:48.440Z,14.67
2018-09-15T01:37:48.405Z,14.74
2018-09-15T01:38:48.396Z,14.64
2018-09-15T01:39:48.387Z,14.72
2018-09-15T01:40:48.374Z,14.78
2018-09-15T01:41:48.386Z,14.63
2018-09-15T01:42:48.357Z,14.71
2018-09-15T01:43:48.344Z,14.67
2018-09-15T01:44:48.335Z,14.69
2018-09-15T01:45:48.321Z,14.69
2018-09-15T01:46:48.333Z,14.83
2018-09-15T01:47:48.321Z,14.80
2018-09-15T01:48:48.288Z,14.79
2018-09-15T01:49:48.280Z,14.83
2018-09-15T01:50:48.266Z,14.93
2018-09-15T01:51:48.280Z,14.95
2018-09-15T01:52:48.245Z,14.90
2018-09-15T01:53:48.235Z,14.91
2018-09-15T01:54:48.224Z,14.94
2018-09-15T01:55:48.237Z,14.98
2018-09-15T01:56:48.226Z,14.97
2018-09-15T01:57:48.209Z,14.93
2018-09-15T01:58:48.187Z,14.95
2018-09-15T01:59:48.175Z,14.93
2018-09-15T02:00:48.161Z,14.97
2018-09-15T02:01:48.171Z,15.03
2018-09-15T02:02:48.139Z,15.03
2018-09-15T02:03:48.130Z,15.13
2018-09-15T02:04:48.118Z,15.05
2018-09-15T02:05:48.106Z,15.04
2018-09-15T02:06:48.119Z,15.12
2018-09-15T02:07:48.089Z,15.01
2018-09-15T02:08:48.075Z,15.04
2018-09-15T02:09:48.063Z,15.12
2018-09-15T02:10:48.074Z,15.01
2018-09-15T02:11:48.068Z,15.00
2018-09-15T02:12:48.031Z,15.05
2018-09-15T02:13:48.021Z,15.07
2018-09-15T02:14:48.009Z,15.20
2018-09-15T02:15:47.999Z,15.09
2018-09-15T02:16:48.014Z,15.04
2018-09-15T02:17:47.979Z,15.05
2018-09-15T02:18:47.968Z,15.19
2018-09-15T02:19:47.955Z,15.13
2018-09-15T02:20:47.974Z,15.15
2018-09-15T02:21:47.961Z,15.15
2018-09-15T02:22:47.935Z,15.13
2018-09-15T02:23:47.912Z,15.12
2018-09-15T02:24:47.906Z,15.05
2018-09-15T02:25:47.891Z,15.03
2018-09-15T02:26:47.911Z,15.11
2018-09-15T02:27:47.872Z,15.04
2018-09-15T02:28:47.913Z,15.09
2018-09-15T02:29:47.850Z,15.03
2018-09-15T02:30:47.846Z,15.03
2018-09-15T02:31:47.851Z,15.03
2018-09-15T02:32:47.816Z,14.98
2018-09-15T02:33:47.822Z,14.95
2018-09-15T02:34:47.802Z,14.87
2018-09-15T02:35:47.785Z,14.74
2018-09-15T02:36:47.802Z,14.80
2018-09-15T02:37:47.764Z,14.87
2018-09-15T02:38:47.751Z,14.80
2018-09-15T02:39:47.754Z,14.78
2018-09-15T02:40:47.734Z,14.79
2018-09-15T02:41:47.744Z,14.79
2018-09-15T02:42:47.713Z,14.71
2018-09-15T02:43:47.712Z,14.75
2018-09-15T02:44:47.700Z,14.60
2018-09-15T02:45:47.685Z,14.64
2018-09-15T02:46:47.692Z,14.64
2018-09-15T02:47:47.655Z,14.67
2018-09-15T02:48:47.648Z,14.57
2018-09-15T02:49:47.637Z,14.60
2018-09-15T02:50:47.626Z,14.48
2018-09-15T02:51:47.639Z,14.48
2018-09-15T02:52:47.609Z,14.52
2018-09-15T02:53:47.594Z,14.41
2018-09-15T02:54:47.644Z,14.42
2018-09-15T02:55:47.569Z,14.31
2018-09-15T02:56:47.605Z,14.34
2018-09-15T02:57:47.549Z,14.36
2018-09-15T02:58:47.536Z,14.29
2018-09-15T02:59:47.543Z,14.27
2018-09-15T03:00:47.516Z,14.19
2018-09-15T03:01:47.529Z,14.21
2018-09-15T03:02:47.493Z,14.08
2018-09-15T03:03:47.482Z,14.06
2018-09-15T03:04:47.471Z,14.06
2018-09-15T03:05:47.461Z,14.04
2018-09-15T03:06:47.488Z,14.04
2018-09-15T03:07:47.439Z,13.90
2018-09-15T03:08:47.428Z,13.88
2018-09-15T03:09:47.421Z,13.83
2018-09-15T03:10:47.479Z,13.75
2018-09-15T03:11:47.421Z,13.72
2018-09-15T03:12:47.386Z,13.66
2018-09-15T03:13:47.374Z,13.71
2018-09-15T03:14:47.363Z,13.72
2018-09-15T03:15:47.355Z,13.62
2018-09-15T03:16:47.381Z,13.65
2018-09-15T03:17:47.330Z,13.63
2018-09-15T03:18:47.321Z,13.66
2018-09-15T03:19:47.318Z,13.61
2018-09-15T03:20:47.300Z,13.62
2018-09-15T03:21:47.310Z,13.61
2018-09-15T03:22:47.279Z,13.63
2018-09-15T03:23:47.271Z,13.55
2018-09-15T03:24:47.255Z,13.47
2018-09-15T03:25:47.245Z,13.47
2018-09-15T03:26:47.264Z,13.41
2018-09-15T03:27:47.225Z,13.43
2018-09-15T03:28:47.213Z,13.28
2018-09-15T03:29:47.221Z,13.29
2018-09-15T03:30:47.190Z,13.17
2018-09-15T03:31:47.202Z,13.22
2018-09-15T03:32:47.173Z,13.12
2018-09-15T03:33:47.156Z,13.03
2018-09-15T03:34:47.146Z,12.94
2018-09-15T03:35:47.135Z,12.92
2018-09-15T03:36:47.150Z,12.94
2018-09-15T03:37:47.112Z,12.96
2018-09-15T03:38:47.102Z,12.84
2018-09-15T03:39:47.114Z,12.96
2018-09-15T03:40:47.081Z,12.96
2018-09-15T03:41:47.243Z,12.85
2018-09-15T03:42:47.063Z,12.95
2018-09-15T03:43:47.049Z,12.88
2018-09-15T03:44:47.040Z,12.85
2018-09-15T03:45:47.031Z,12.84
2018-09-15T03:46:47.039Z,12.77
2018-09-15T03:47:47.006Z,12.74
2018-09-15T03:48:46.992Z,12.69
2018-09-15T03:49:46.986Z,12.62
2018-09-15T03:50:46.977Z,12.58
2018-09-15T03:51:46.985Z,12.63
2018-09-15T03:52:46.953Z,12.49
2018-09-15T03:53:46.938Z,12.40
2018-09-15T03:54:46.929Z,12.40
2018-09-15T03:55:46.917Z,12.38
2018-09-15T03:56:46.929Z,12.34
2018-09-15T03:57:46.896Z,12.26
2018-09-15T03:58:46.898Z,12.23
2018-09-15T03:59:46.885Z,12.13
2018-09-15T04:00:46.878Z,12.19
2018-09-15T04:01:46.876Z,12.18
2018-09-15T04:02:46.864Z,12.15
2018-09-15T04:03:46.833Z,12.15
2018-09-15T04:04:46.824Z,12.15
2018-09-15T04:05:46.810Z,12.15
2018-09-15T04:06:46.821Z,12.03
2018-09-15T04:07:46.788Z,12.00
2018-09-15T04:08:46.777Z,12.05
2018-09-15T04:09:46.771Z,12.04
2018-09-15T04:10:46.757Z,12.04
2018-09-15T04:11:46.770Z,12.03
2018-09-15T04:12:46.734Z,12.04
2018-09-15T04:13:46.723Z,12.04
2018-09-15T04:14:46.716Z,12.04
2018-09-15T04:15:46.702Z,11.96
2018-09-15T04:16:46.716Z,12.00
2018-09-15T04:17:46.681Z,12.03
2018-09-15T04:18:46.670Z,12.01
2018-09-15T04:19:46.663Z,12.01
2018-09-15T04:20:46.648Z,11.96
2018-09-15T04:21:46.663Z,11.93
2018-09-15T04:22:46.636Z,11.85
2018-09-15T04:23:46.617Z,11.82
2018-09-15T04:24:46.618Z,11.81
2018-09-15T04:25:46.611Z,11.75
2018-09-15T04:26:46.612Z,11.85
2018-09-15T04:27:46.574Z,11.82
2018-09-15T04:28:46.563Z,11.64
2018-09-15T04:29:46.552Z,11.70
2018-09-15T04:30:46.543Z,11.70
2018-09-15T04:31:46.555Z,11.62
2018-09-15T04:32:46.522Z,11.57
2018-09-15T04:33:46.511Z,11.48
2018-09-15T04:34:46.500Z,11.49
2018-09-15T04:35:46.489Z,11.48
2018-09-15T04:36:46.502Z,11.42
2018-09-15T04:37:46.468Z,11.44
2018-09-15T04:38:46.478Z,11.38
2018-09-15T04:39:46.451Z,11.38
2018-09-15T04:40:46.436Z,11.28
2018-09-15T04:41:46.530Z,11.27
2018-09-15T04:42:46.415Z,11.31
2018-09-15T04:43:46.403Z,11.23
2018-09-15T04:44:46.392Z,11.13
2018-09-15T04:45:46.387Z,11.16
2018-09-15T04:46:46.400Z,11.17
2018-09-15T04:47:46.362Z,11.08
2018-09-15T04:48:46.372Z,11.06
2018-09-15T04:49:46.341Z,11.12
2018-09-15T04:50:46.334Z,11.13
2018-09-15T04:51:46.344Z,11.03
2018-09-15T04:52:46.391Z,11.05
2018-09-15T04:53:46.300Z,10.95
2018-09-15T04:54:46.287Z,10.99
2018-09-15T04:55:46.281Z,10.91
2018-09-15T04:56:46.288Z,10.93
2018-09-15T04:57:46.253Z,10.95
2018-09-15T04:58:46.292Z,10.91
2018-09-15T04:59:46.234Z,10.99
2018-09-15T05:00:46.223Z,10.95
2018-09-15T05:01:46.237Z,10.94
2018-09-15T05:02:46.200Z,10.87
2018-09-15T05:03:46.196Z,10.88
2018-09-15T05:04:46.181Z,10.80
2018-09-15T05:05:46.167Z,10.86
2018-09-15T05:06:46.188Z,10.73
2018-09-15T05:07:46.146Z,10.87
2018-09-15T05:08:46.136Z,10.86
2018-09-15T05:09:46.128Z,10.81
2018-09-15T05:10:46.115Z,10.88
2018-09-15T05:11:46.151Z,10.83
2018-09-15T05:12:46.111Z,10.88
2018-09-15T05:13:46.088Z,10.94
2018-09-15T05:14:46.072Z,11.01
2018-09-15T05:15:46.060Z,11.13
2018-09-15T05:16:46.075Z,11.20
2018-09-15T05:17:46.039Z,11.27
2018-09-15T05:18:46.033Z,11.33
2018-09-15T05:19:46.018Z,11.41
2018-09-15T05:20:46.015Z,11.57
2018-09-15T05:21:46.047Z,11.62
2018-09-15T05:22:45.985Z,11.69
2018-09-15T05:23:46.024Z,11.67
2018-09-15T05:24:45.979Z,11.67
2018-09-15T05:25:45.956Z,11.69
2018-09-15T05:26:45.967Z,11.81
2018-09-15T05:27:45.941Z,11.82
2018-09-15T05:28:45.924Z,11.79
2018-09-15T05:29:45.913Z,11.81
2018-09-15T05:30:45.899Z,11.85
2018-09-15T05:31:45.918Z,11.75
2018-09-15T05:32:45.882Z,11.93
2018-09-15T05:33:45.872Z,11.87
2018-09-15T05:34:45.867Z,11.93
2018-09-15T05:35:45.848Z,11.87
2018-09-15T05:36:45.861Z,11.81
2018-09-15T05:37:45.826Z,11.84
2018-09-15T05:38:45.821Z,11.90
2018-09-15T05:39:45.822Z,11.87
2018-09-15T05:40:45.795Z,11.88
2018-09-15T05:41:45.808Z,11.84
2018-09-15T05:42:45.776Z,11.90
2018-09-15T05:43:45.765Z,11.90
2018-09-15T05:44:45.771Z,11.94
2018-09-15T05:45:45.743Z,11.90
2018-09-15T05:46:45.752Z,11.98
2018-09-15T05:47:45.721Z,11.98
2018-09-15T05:48:45.708Z,11.96
2018-09-15T05:49:45.854Z,11.98
2018-09-15T05:50:45.686Z,12.00
2018-09-15T05:51:45.700Z,11.97
2018-09-15T05:52:45.666Z,12.01
2018-09-15T05:53:45.675Z,12.03
2018-09-15T05:54:45.652Z,12.01
2018-09-15T05:55:45.634Z,12.01
2018-09-15T05:56:45.648Z,12.07
2018-09-15T05:57:45.617Z,12.03
2018-09-15T05:58:45.607Z,12.15
2018-09-15T05:59:45.598Z,12.18
2018-09-15T06:00:45.581Z,12.13
2018-09-15T06:01:45.688Z,12.12
2018-09-15T06:02:45.578Z,12.12
2018-09-15T06:03:45.551Z,12.15
2018-09-15T06:04:45.538Z,12.15
2018-09-15T06:05:45.528Z,12.11
2018-09-15T06:06:45.557Z,12.12
2018-09-15T06:07:45.621Z,12.13
2018-09-15T06:08:45.496Z,12.22
2018-09-15T06:09:45.486Z,12.15
2018-09-15T06:10:45.479Z,12.30
2018-09-15T06:11:45.490Z,12.23
2018-09-15T06:12:45.454Z,12.30
2018-09-15T06:13:45.503Z,12.29
2018-09-15T06:14:45.432Z,12.26
2018-09-15T06:15:45.422Z,12.41
2018-09-15T06:16:45.440Z,12.41
2018-09-15T06:17:45.416Z,12.41
2018-09-15T06:18:45.390Z,12.37
2018-09-15T06:19:45.404Z,12.43
2018-09-15T06:20:45.407Z,12.46
2018-09-15T06:21:45.404Z,12.40
2018-09-15T06:22:45.346Z,12.40
2018-09-15T06:23:45.337Z,12.46
2018-09-15T06:24:45.326Z,12.43
2018-09-15T06:25:45.319Z,12.37
2018-09-15T06:26:45.338Z,12.41
2018-09-15T06:27:45.292Z,12.55
2018-09-15T06:28:45.282Z,12.66
2018-09-15T06:29:45.270Z,12.70
2018-09-15T06:30:45.261Z,12.91
2018-09-15T06:31:45.290Z,12.92
2018-09-15T06:32:45.243Z,13.14
2018-09-15T06:33:45.229Z,13.28
2018-09-15T06:34:45.224Z,13.38
2018-09-15T06:35:45.206Z,13.47
2018-09-15T06:36:45.217Z,13.38
2018-09-15T06:37:45.182Z,13.32
2018-09-15T06:38:45.172Z,13.39
2018-09-15T06:39:45.162Z,13.55
2018-09-15T06:40:45.150Z,13.96
2018-09-15T06:41:45.178Z,14.04
2018-09-15T06:42:45.130Z,14.49
2018-09-15T06:43:45.139Z,14.74
2018-09-15T06:44:45.106Z,15.01
2018-09-15T06:45:45.205Z,15.38
2018-09-15T06:46:45.114Z,15.48
2018-09-15T06:47:45.081Z,15.80
2018-09-15T06:48:45.068Z,15.81
2018-09-15T06:49:45.068Z,15.40
2018-09-15T06:50:45.044Z,15.35
2018-09-15T06:51:45.064Z,15.15
2018-09-15T06:52:45.034Z,15.74
2018-09-15T06:53:45.040Z,16.13
2018-09-15T06:54:45.008Z,16.60
2018-09-15T06:55:44.995Z,16.59
2018-09-15T06:56:45.009Z,16.30
2018-09-15T06:57:45.032Z,15.93
2018-09-15T06:58:44.982Z,15.53
2018-09-15T06:59:44.945Z,15.19
2018-09-15T07:00:44.983Z,15.04
2018-09-15T07:01:44.970Z,14.95
2018-09-15T07:02:44.912Z,14.82
2018-09-15T07:03:44.903Z,14.79
2018-09-15T07:04:44.895Z,14.74
2018-09-15T07:05:44.881Z,14.79
2018-09-15T07:06:44.897Z,14.85
2018-09-15T07:07:44.862Z,14.93
2018-09-15T07:08:44.848Z,15.04
2018-09-15T07:09:44.836Z,15.04
2018-09-15T07:10:44.827Z,15.03
2018-09-15T07:11:44.846Z,15.12
2018-09-15T07:12:44.809Z,15.09
2018-09-15T07:13:44.795Z,15.01
2018-09-15T07:14:44.796Z,15.07
2018-09-15T07:15:44.777Z,15.15
2018-09-15T07:16:44.788Z,15.18
2018-09-15T07:17:44.754Z,15.19
2018-09-15T07:18:44.744Z,15.28
2018-09-15T07:19:44.729Z,15.27
2018-09-15T07:20:44.720Z,15.31
2018-09-15T07:21:44.732Z,15.25
2018-09-15T07:22:44.697Z,15.33
2018-09-15T07:23:44.693Z,15.40
2018-09-15T07:24:44.685Z,15.33
2018-09-15T07:25:44.667Z,15.38
2018-09-15T07:26:44.681Z,15.51
2018-09-15T07:27:44.660Z,15.46
2018-09-15T07:28:44.634Z,15.58
2018-09-15T07:29:44.628Z,15.77
2018-09-15T07:30:44.612Z,15.91
2018-09-15T07:31:44.648Z,16.13
2018-09-15T07:32:44.598Z,16.13
2018-09-15T07:33:44.582Z,16.25
2018-09-15T07:34:44.583Z,16.27
2018-09-15T07:35:44.557Z,16.23
2018-09-15T07:36:44.573Z,16.32
2018-09-15T07:37:44.685Z,16.40
2018-09-15T07:38:44.527Z,16.40
2018-09-15T07:39:44.516Z,16.40
2018-09-15T07:40:44.524Z,16.37
2018-09-15T07:41:44.574Z,16.30
2018-09-15T07:42:44.483Z,16.36
2018-09-15T07:43:44.476Z,16.34
2018-09-15T07:44:44.501Z,16.33
2018-09-15T07:45:44.451Z,16.42
2018-09-15T07:46:44.462Z,16.45
2018-09-15T07:47:44.432Z,16.44
2018-09-15T07:48:44.417Z,16.45
2018-09-15T07:49:44.409Z,16.41
2018-09-15T07:50:44.401Z,16.57
2018-09-15T07:51:44.467Z,16.62
2018-09-15T07:52:44.381Z,16.59
2018-09-15T07:53:44.366Z,16.60
2018-09-15T07:54:44.356Z,16.70
2018-09-15T07:55:44.343Z,16.81
2018-09-15T07:56:44.357Z,16.78
2018-09-15T07:57:44.461Z,16.73
2018-09-15T07:58:44.312Z,16.73
2018-09-15T07:59:44.303Z,16.80
2018-09-15T08:00:44.296Z,16.81
2018-09-15T08:01:44.303Z,16.82
2018-09-15T08:02:44.272Z,16.96
2018-09-15T08:03:44.268Z,17.02
2018-09-15T08:04:44.250Z,17.15
2018-09-15T08:05:44.240Z,17.28
2018-09-15T08:06:44.251Z,17.28
2018-09-15T08:07:44.216Z,17.25
2018-09-15T08:08:44.204Z,17.17
2018-09-15T08:09:44.198Z,17.10
2018-09-15T08:10:44.203Z,17.02
2018-09-15T08:11:44.198Z,17.09
2018-09-15T08:12:44.163Z,16.99
2018-09-15T08:13:44.183Z,17.05
2018-09-15T08:14:44.142Z,17.12
2018-09-15T08:15:44.132Z,16.99
2018-09-15T08:16:44.192Z,17.00
2018-09-15T08:17:44.110Z,17.10
2018-09-15T08:18:44.097Z,17.21
2018-09-15T08:19:44.088Z,17.49
2018-09-15T08:20:44.136Z,17.57
2018-09-15T08:21:44.093Z,17.58
2018-09-15T08:22:44.056Z,17.68
2018-09-15T08:23:44.046Z,17.66
2018-09-15T08:24:44.033Z,17.80
2018-09-15T08:25:44.022Z,17.81
2018-09-15T08:26:44.037Z,17.87
2018-09-15T08:27:44.026Z,17.89
2018-09-15T08:28:43.991Z,17.98
2018-09-15T08:29:43.982Z,17.96
2018-09-15T08:30:43.969Z,18.05
2018-09-15T08:31:43.993Z,17.95
2018-09-15T08:32:43.949Z,17.99
2018-09-15T08:33:43.952Z,18.13
2018-09-15T08:34:43.965Z,18.20
2018-09-15T08:35:43.919Z,18.23
2018-09-15T08:36:43.927Z,18.32
2018-09-15T08:37:43.913Z,18.38
2018-09-15T08:38:43.883Z,18.25
2018-09-15T08:39:43.880Z,18.26
2018-09-15T08:40:43.862Z,18.35
2018-09-15T08:41:43.877Z,18.41
2018-09-15T08:42:43.842Z,18.31
2018-09-15T08:43:43.828Z,18.35
2018-09-15T08:44:43.827Z,18.20
2018-09-15T08:45:43.819Z,18.23
2018-09-15T08:46:43.831Z,18.32
2018-09-15T08:47:43.807Z,18.38
2018-09-15T08:48:43.774Z,18.57
2018-09-15T08:49:43.765Z,18.49
2018-09-15T08:50:43.753Z,18.66
2018-09-15T08:51:43.768Z,18.76
2018-09-15T08:52:43.738Z,18.86
2018-09-15T08:53:43.759Z,18.68
2018-09-15T08:54:43.712Z,18.69
2018-09-15T08:55:43.701Z,18.69
2018-09-15T08:56:43.739Z,18.74
2018-09-15T08:57:43.678Z,18.75
2018-09-15T08:58:43.668Z,18.84
2018-09-15T08:59:43.658Z,18.91
2018-09-15T09:00:43.661Z,19.10
2018-09-15T09:01:43.665Z,19.17
2018-09-15T09:02:43.630Z,19.34
2018-09-15T09:03:43.691Z,19.40
2018-09-15T09:04:43.608Z,19.32
2018-09-15T09:05:43.592Z,19.28
2018-09-15T09:06:43.629Z,19.28
2018-09-15T09:07:43.596Z,19.12
2018-09-15T09:08:43.560Z,19.27
2018-09-15T09:09:43.558Z,19.21
2018-09-15T09:10:43.539Z,19.27
2018-09-15T09:11:43.551Z,19.15
2018-09-15T09:12:43.523Z,19.13
2018-09-15T09:13:43.511Z,19.09
2018-09-15T09:14:43.496Z,18.90
2018-09-15T09:15:43.487Z,18.74
2018-09-15T09:16:43.502Z,18.72
2018-09-15T09:17:43.492Z,18.62
2018-09-15T09:18:43.455Z,18.53
2018-09-15T09:19:43.452Z,18.46
2018-09-15T09:20:43.435Z,18.51
2018-09-15T09:21:43.448Z,18.50
2018-09-15T09:22:43.411Z,18.44
2018-09-15T09:23:43.402Z,18.54
2018-09-15T09:24:43.399Z,18.47
2018-09-15T09:25:43.402Z,18.49
2018-09-15T09:26:43.452Z,18.39
2018-09-15T09:27:43.358Z,18.39
2018-09-15T09:28:43.352Z,18.41
2018-09-15T09:29:43.364Z,18.32
2018-09-15T09:30:43.325Z,18.31
2018-09-15T09:31:43.339Z,18.34
2018-09-15T09:32:43.307Z,18.39
2018-09-15T09:33:43.293Z,18.23
2018-09-15T09:34:43.282Z,18.31
2018-09-15T09:35:43.272Z,18.39
2018-09-15T09:36:43.286Z,18.39
2018-09-15T09:37:43.250Z,18.66
2018-09-15T09:38:43.241Z,18.72
2018-09-15T09:39:43.230Z,18.71
2018-09-15T09:40:43.217Z,18.91
2018-09-15T09:41:43.274Z,19.01
2018-09-15T09:42:43.220Z,19.06
2018-09-15T09:43:43.187Z,19.17
2018-09-15T09:44:43.177Z,19.32
2018-09-15T09:45:43.164Z,19.40
2018-09-15T09:46:43.178Z,19.35
2018-09-15T09:47:43.145Z,19.49
2018-09-15T09:48:43.133Z,19.45
2018-09-15T09:49:43.123Z,19.65
2018-09-15T09:50:43.111Z,19.76
2018-09-15T09:51:43.125Z,19.70
2018-09-15T09:52:43.103Z,19.57
2018-09-15T09:53:43.081Z,19.47
2018-09-15T09:54:43.067Z,19.27
2018-09-15T09:55:43.059Z,19.23
2018-09-15T09:56:43.077Z,19.17
2018-09-15T09:57:43.036Z,19.09
2018-09-15T09:58:43.032Z,19.09
2018-09-15T09:59:43.017Z,18.99
2018-09-15T10:00:43.004Z,18.93
2018-09-15T10:01:43.131Z,18.94
2018-09-15T10:02:42.990Z,18.93
2018-09-15T10:03:42.993Z,18.99
2018-09-15T10:04:42.963Z,19.05
2018-09-15T10:05:42.977Z,19.05
2018-09-15T10:06:42.980Z,19.16
2018-09-15T10:07:42.929Z,19.25
2018-09-15T10:08:42.925Z,19.21
2018-09-15T10:09:42.909Z,19.25
2018-09-15T10:10:42.898Z,19.40
2018-09-15T10:11:42.909Z,19.27
2018-09-15T10:12:42.878Z,19.32
2018-09-15T10:13:42.865Z,19.34
2018-09-15T10:14:42.867Z,19.28
2018-09-15T10:15:42.898Z,19.42
2018-09-15T10:16:42.866Z,19.39
2018-09-15T10:17:42.827Z,19.43
2018-09-15T10:18:42.812Z,19.43
2018-09-15T10:19:42.800Z,19.53
2018-09-15T10:20:42.796Z,19.53
2018-09-15T10:21:42.869Z,19.58
2018-09-15T10:22:42.795Z,19.70
2018-09-15T10:23:42.766Z,19.64
2018-09-15T10:24:42.748Z,19.82
2018-09-15T10:25:42.791Z,19.80
2018-09-15T10:26:42.761Z,19.95
2018-09-15T10:27:42.714Z,20.00
2018-09-15T10:28:42.720Z,20.17
2018-09-15T10:29:42.694Z,20.23
2018-09-15T10:30:42.689Z,20.22
2018-09-15T10:31:42.697Z,20.31
2018-09-15T10:32:42.661Z,20.34
2018-09-15T10:33:42.668Z,20.56
2018-09-15T10:34:42.697Z,20.75
2018-09-15T10:35:42.640Z,20.72
2018-09-15T10:36:42.654Z,20.79
2018-09-15T10:37:42.607Z,20.73
2018-09-15T10:38:42.619Z,20.75
2018-09-15T10:39:42.589Z,20.94
2018-09-15T10:40:42.578Z,20.98
2018-09-15T10:41:42.593Z,21.03
2018-09-15T10:42:42.565Z,21.19
2018-09-15T10:43:42.545Z,21.19
2018-09-15T10:44:42.533Z,21.28
2018-09-15T10:45:42.524Z,21.28
2018-09-15T10:46:42.604Z,21.12
2018-09-15T10:47:42.517Z,21.11
2018-09-15T10:48:42.534Z,21.06
2018-09-15T10:49:42.487Z,21.21
2018-09-15T10:50:42.490Z,21.11
2018-09-15T10:51:42.502Z,21.09
2018-09-15T10:52:42.452Z,21.01
2018-09-15T10:53:42.442Z,20.96
2018-09-15T10:54:42.430Z,21.09
2018-09-15T10:55:42.419Z,21.11
2018-09-15T10:56:42.571Z,21.18
2018-09-15T10:57:42.396Z,21.27
2018-09-15T10:58:42.395Z,21.24
2018-09-15T10:59:42.423Z,21.31
2018-09-15T11:00:42.429Z,21.31
2018-09-15T11:01:42.386Z,21.27
2018-09-15T11:02:42.345Z,21.36
2018-09-15T11:03:42.334Z,21.33
2018-09-15T11:04:42.357Z,21.38
2018-09-15T11:05:42.337Z,21.42
2018-09-15T11:06:42.333Z,21.45
2018-09-15T11:07:42.297Z,21.51
2018-09-15T11:08:42.294Z,21.51
2018-09-15T11:09:42.269Z,21.36
2018-09-15T11:10:42.260Z,21.28
2018-09-15T11:11:42.306Z,21.24
2018-09-15T11:12:42.244Z,21.19
2018-09-15T11:13:42.341Z,21.09
2018-09-15T11:14:42.223Z,21.01
2018-09-15T11:15:42.212Z,20.98
2018-09-15T11:16:42.221Z,20.94
2018-09-15T11:17:42.196Z,20.94
2018-09-15T11:18:42.178Z,21.09
2018-09-15T11:19:42.163Z,21.12
2018-09-15T11:20:42.155Z,21.19
2018-09-15T11:21:42.168Z,21.27
2018-09-15T11:22:42.148Z,21.24
2018-09-15T11:23:42.143Z,21.13
2018-09-15T11:24:42.112Z,21.27
2018-09-15T11:25:42.105Z,21.11
2018-09-15T11:26:42.126Z,21.19
2018-09-15T11:27:42.080Z,21.33
2018-09-15T11:28:42.151Z,21.26
2018-09-15T11:29:42.062Z,21.36
2018-09-15T11:30:42.055Z,21.37
2018-09-15T11:31:42.065Z,21.36
2018-09-15T11:32:42.032Z,21.42
2018-09-15T11:33:42.021Z,21.49
2018-09-15T11:34:42.039Z,21.74
2018-09-15T11:35:41.996Z,21.55
2018-09-15T11:36:42.011Z,21.58
2018-09-15T11:37:41.991Z,21.70
2018-09-15T11:38:41.988Z,21.75
2018-09-15T11:39:41.952Z,21.77
2018-09-15T11:40:41.944Z,21.77
2018-09-15T11:41:41.961Z,21.75
2018-09-15T11:42:41.921Z,21.77
2018-09-15T11:43:41.945Z,21.70
2018-09-15T11:44:41.920Z,21.61
2018-09-15T11:45:41.892Z,21.63
2018-09-15T11:46:41.946Z,21.56
2018-09-15T11:47:41.885Z,21.70
2018-09-15T11:48:41.868Z,21.83
2018-09-15T11:49:41.845Z,21.86
2018-09-15T11:50:41.841Z,21.98
2018-09-15T11:51:41.871Z,22.04
2018-09-15T11:52:41.818Z,22.01
2018-09-15T11:53:41.843Z,22.23
2018-09-15T11:54:41.799Z,22.17
2018-09-15T11:55:41.792Z,22.14
2018-09-15T11:56:41.800Z,22.14
2018-09-15T11:57:42.213Z,21.82
2018-09-15T11:58:41.754Z,21.75
2018-09-15T11:59:41.740Z,21.55
2018-09-15T12:00:41.739Z,21.63
2018-09-15T12:01:41.745Z,21.66
2018-09-15T12:02:41.709Z,21.61
2018-09-15T12:03:41.708Z,21.59
2018-09-15T12:04:41.685Z,21.58
2018-09-15T12:05:41.676Z,21.53
2018-09-15T12:06:41.688Z,21.56
2018-09-15T12:07:41.701Z,21.55
2018-09-15T12:08:41.644Z,21.64
2018-09-15T12:09:41.637Z,21.73
2018-09-15T12:10:41.632Z,21.74
2018-09-15T12:11:41.635Z,21.73
2018-09-15T12:12:41.600Z,21.81
2018-09-15T12:13:41.590Z,21.89
2018-09-15T12:14:41.583Z,21.83
2018-09-15T12:15:41.573Z,21.77
2018-09-15T12:16:41.589Z,21.66
2018-09-15T12:17:41.608Z,21.73
2018-09-15T12:18:41.560Z,21.77
2018-09-15T12:19:41.527Z,21.79
2018-09-15T12:20:41.536Z,21.79
2018-09-15T12:21:41.598Z,22.02
2018-09-15T12:22:41.492Z,22.09
2018-09-15T12:23:41.492Z,22.15
2018-09-15T12:24:41.483Z,22.30
2018-09-15T12:25:41.477Z,22.35
2018-09-15T12:26:41.486Z,22.27
2018-09-15T12:27:41.461Z,22.27
2018-09-15T12:28:41.438Z,22.15
2018-09-15T12:29:41.425Z,22.15
2018-09-15T12:30:41.430Z,22.12
2018-09-15T12:31:41.424Z,21.93
2018-09-15T12:32:41.410Z,21.99
2018-09-15T12:33:41.391Z,22.06
2018-09-15T12:34:41.384Z,22.20
2018-09-15T12:35:41.359Z,22.24
2018-09-15T12:36:41.415Z,22.31
2018-09-15T12:37:41.338Z,22.38
2018-09-15T12:38:41.320Z,22.48
2018-09-15T12:39:41.334Z,22.44
2018-09-15T12:40:41.310Z,22.69
2018-09-15T12:41:41.320Z,22.66
2018-09-15T12:42:41.288Z,22.45
2018-09-15T12:43:41.288Z,22.96
2018-09-15T12:44:41.280Z,22.94
2018-09-15T12:45:41.254Z,23.00
2018-09-15T12:46:41.262Z,23.35
2018-09-15T12:47:41.226Z,23.89
2018-09-15T12:48:41.224Z,24.45
2018-09-15T12:49:41.257Z,24.60
2018-09-15T12:50:41.199Z,24.92
2018-09-15T12:51:41.220Z,24.92
2018-09-15T12:52:41.179Z,25.29